Preview of NWS' New Version of Forecast
This preview is not operational and should not be used for support decisions.

Terminal Aerodrome Forecast (TAF)

Issued by National Weather Service (NWS)

                            
000
FTUS42 KCAE 210919 AAB
TAFOGB
TAF AMD
KOGB 210919Z 2109/2206 20004KT P6SM BKN019
     FM211400 23007KT P6SM SCT040
     FM220100 21003KT P6SM SCT250=